Time;durP1;ratioP1;P1;durP2;ratioP2;P2;SDS_P1;SDS_P2;PMS_P1;PMS_P2;Temp;Humidity;BMP_temperature;BMP_pressure;BME280_temperature;BME280_humidity;BME280_pressure;Samples;Min_cycle;Max_cycle;Signal;HPM_P1;HPM_P2
2022/04/24 00:01:43;;;;;;;7.90;4.53;;;;;;;;;;5088508;28;20450;-71
2022/04/24 00:04:10;;;;;;;6.23;4.80;;;;;;;;;;5086266;28;20443;-72
2022/04/24 00:06:39;;;;;;;6.93;5.87;;;;;;;;;;5083435;28;20960;-71
2022/04/24 00:09:07;;;;;;;9.63;6.00;;;;;;;;;;5089675;28;20773;-72
2022/04/24 00:11:35;;;;;;;7.37;4.50;;;;;;;;;;5091479;28;20444;-71
2022/04/24 00:14:07;;;;;;;8.20;5.03;;;;;;;;;;5090605;28;20535;-71
2022/04/24 00:16:34;;;;;;;7.30;5.43;;;;;;;;;;5091300;28;20526;-71
2022/04/24 00:19:02;;;;;;;6.40;4.40;;;;;;;;;;5085829;28;20447;-71
2022/04/24 00:21:29;;;;;;;7.33;4.83;;;;;;;;;;5091897;28;20483;-71
2022/04/24 00:23:56;;;;;;;6.40;5.70;;;;;;;;;;5090908;28;20451;-71
2022/04/24 00:26:25;;;;;;;9.00;6.73;;;;;;;;;;5088512;28;20440;-71
2022/04/24 00:28:53;;;;;;;10.97;5.00;;;;;;;;;;5087028;28;20530;-72
2022/04/24 00:31:21;;;;;;;9.33;6.33;;;;;;;;;;5086808;28;20443;-71
2022/04/24 00:33:48;;;;;;;7.90;5.83;;;;;;;;;;5090250;28;20531;-70
2022/04/24 00:36:15;;;;;;;7.13;4.07;;;;;;;;;;5091113;28;20484;-71
2022/04/24 00:38:42;;;;;;;5.77;5.20;;;;;;;;;;5081322;28;20444;-72
2022/04/24 00:41:09;;;;;;;6.50;5.03;;;;;;;;;;5088735;28;20514;-73
2022/04/24 00:43:38;;;;;;;9.40;6.43;;;;;;;;;;5091269;28;20461;-71
2022/04/24 00:46:12;;;;;;;6.40;5.53;;;;;;;;;;5089925;28;20455;-72
2022/04/24 00:48:40;;;;;;;6.23;4.47;;;;;;;;;;5090517;28;20520;-72
2022/04/24 00:51:07;;;;;;;7.10;5.27;;;;;;;;;;5086012;28;21034;-70
2022/04/24 00:53:35;;;;;;;8.07;5.03;;;;;;;;;;5081473;28;20532;-73
2022/04/24 00:56:02;;;;;;;6.60;5.07;;;;;;;;;;5086381;28;20460;-70
2022/04/24 00:58:30;;;;;;;5.77;4.57;;;;;;;;;;5083815;28;20491;-71
2022/04/24 01:00:58;;;;;;;8.93;6.10;;;;;;;;;;5086314;28;20479;-70
2022/04/24 01:03:26;;;;;;;6.53;4.60;;;;;;;;;;5088088;28;20910;-72
2022/04/24 01:05:53;;;;;;;8.10;5.30;;;;;;;;;;5076876;28;20854;-72
2022/04/24 01:08:20;;;;;;;5.77;4.40;;;;;;;;;;5084369;28;20440;-71
2022/04/24 01:10:47;;;;;;;4.73;3.20;;;;;;;;;;5083682;28;20459;-70
2022/04/24 01:13:14;;;;;;;7.80;5.10;;;;;;;;;;5073029;28;20538;-72
2022/04/24 01:15:42;;;;;;;6.03;4.67;;;;;;;;;;5086178;28;20475;-71
2022/04/24 01:18:11;;;;;;;7.23;5.70;;;;;;;;;;5089704;28;20553;-71
2022/04/24 01:20:40;;;;;;;6.93;5.40;;;;;;;;;;5085743;28;20556;-71
2022/04/24 01:23:07;;;;;;;7.97;4.23;;;;;;;;;;5085724;28;20803;-71
2022/04/24 01:25:34;;;;;;;6.00;5.40;;;;;;;;;;5079508;28;20440;-71
2022/04/24 01:28:07;;;;;;;6.70;4.40;;;;;;;;;;5088044;28;20459;-72
2022/04/24 01:30:34;;;;;;;11.60;5.50;;;;;;;;;;5071838;28;20449;-71
2022/04/24 01:33:01;;;;;;;4.60;3.33;;;;;;;;;;5083186;28;20456;-71
2022/04/24 01:35:28;;;;;;;6.30;4.07;;;;;;;;;;5070617;28;20949;-71
2022/04/24 01:37:58;;;;;;;4.77;3.50;;;;;;;;;;5085402;28;20445;-72
2022/04/24 01:40:25;;;;;;;10.60;5.63;;;;;;;;;;5090506;28;20883;-71
2022/04/24 01:42:53;;;;;;;5.73;4.57;;;;;;;;;;5086346;28;20937;-70
2022/04/24 01:45:20;;;;;;;7.30;5.17;;;;;;;;;;5090409;28;20945;-72
2022/04/24 01:47:47;;;;;;;6.27;4.20;;;;;;;;;;5083186;28;20510;-72
2022/04/24 01:50:14;;;;;;;7.70;5.70;;;;;;;;;;5080604;28;20461;-71
2022/04/24 01:52:41;;;;;;;6.80;4.53;;;;;;;;;;5089904;28;20441;-71
2022/04/24 01:55:10;;;;;;;8.10;4.57;;;;;;;;;;5089424;28;20770;-70
2022/04/24 01:57:37;;;;;;;7.83;5.73;;;;;;;;;;5073005;28;20536;-70
2022/04/24 02:00:05;;;;;;;5.63;5.03;;;;;;;;;;5080682;28;20824;-71
2022/04/24 02:02:32;;;;;;;6.20;4.20;;;;;;;;;;5088973;28;20472;-71
2022/04/24 02:04:59;;;;;;;5.97;3.80;;;;;;;;;;5088810;28;20452;-71
2022/04/24 02:07:28;;;;;;;7.70;4.67;;;;;;;;;;5082351;28;20543;-71
2022/04/24 02:09:55;;;;;;;10.43;6.57;;;;;;;;;;5080686;28;20963;-71
2022/04/24 02:12:24;;;;;;;5.37;4.87;;;;;;;;;;5078129;28;20538;-70
2022/04/24 02:14:51;;;;;;;4.47;3.77;;;;;;;;;;5088771;28;20449;-71
2022/04/24 02:17:18;;;;;;;7.90;4.67;;;;;;;;;;5086296;28;20459;-71
2022/04/24 02:19:45;;;;;;;7.90;6.10;;;;;;;;;;5089124;28;20524;-71
2022/04/24 02:22:12;;;;;;;7.47;5.10;;;;;;;;;;5081952;28;20465;-71
2022/04/24 02:24:39;;;;;;;6.80;5.27;;;;;;;;;;5084665;28;20513;-71
2022/04/24 02:27:07;;;;;;;6.60;4.50;;;;;;;;;;5071775;28;20476;-71
2022/04/24 02:29:35;;;;;;;6.60;4.67;;;;;;;;;;5083869;28;20441;-71
2022/04/24 02:32:02;;;;;;;5.90;4.13;;;;;;;;;;5089056;28;20448;-71
2022/04/24 02:34:29;;;;;;;7.30;4.30;;;;;;;;;;5092462;28;20479;-71
2022/04/24 02:36:57;;;;;;;7.37;4.77;;;;;;;;;;5092555;28;21016;-71
2022/04/24 02:39:24;;;;;;;6.17;5.10;;;;;;;;;;5092816;28;20449;-72
2022/04/24 02:41:51;;;;;;;10.30;6.40;;;;;;;;;;5083020;28;20799;-71
2022/04/24 02:44:18;;;;;;;13.60;8.10;;;;;;;;;;5092742;28;20976;-71
2022/04/24 02:46:46;;;;;;;14.03;10.00;;;;;;;;;;5093583;28;20498;-71
2022/04/24 02:49:14;;;;;;;12.23;7.20;;;;;;;;;;5078634;28;20453;-70
2022/04/24 02:51:41;;;;;;;11.20;7.80;;;;;;;;;;5089216;28;20480;-71
2022/04/24 02:54:08;;;;;;;12.20;7.63;;;;;;;;;;5092271;28;20450;-72
2022/04/24 02:56:35;;;;;;;7.50;4.70;;;;;;;;;;5092600;28;20450;-71
2022/04/24 02:59:03;;;;;;;9.37;5.40;;;;;;;;;;5090698;28;20984;-71
2022/04/24 03:01:30;;;;;;;7.00;4.60;;;;;;;;;;5093078;28;20859;-72
2022/04/24 03:03:59;;;;;;;8.57;5.70;;;;;;;;;;5087904;28;20461;-72
2022/04/24 03:06:26;;;;;;;10.27;6.60;;;;;;;;;;5083813;28;20536;-72
2022/04/24 03:08:53;;;;;;;7.87;5.17;;;;;;;;;;5087214;28;20560;-72
2022/04/24 03:11:20;;;;;;;6.23;4.70;;;;;;;;;;5088024;28;20436;-70
2022/04/24 03:13:48;;;;;;;7.63;4.40;;;;;;;;;;5078644;28;20461;-70
2022/04/24 03:16:15;;;;;;;9.80;6.40;;;;;;;;;;5091963;28;20527;-71
2022/04/24 03:18:42;;;;;;;10.93;4.80;;;;;;;;;;5091776;28;20536;-71
2022/04/24 03:21:11;;;;;;;7.33;4.63;;;;;;;;;;5086398;28;20487;-71
2022/04/24 03:23:39;;;;;;;5.87;4.60;;;;;;;;;;5092129;28;20774;-71
2022/04/24 03:26:06;;;;;;;7.80;5.37;;;;;;;;;;5091682;28;20480;-72
2022/04/24 03:28:33;;;;;;;9.73;6.20;;;;;;;;;;5086161;28;20449;-71
2022/04/24 03:31:01;;;;;;;9.40;6.57;;;;;;;;;;5084768;28;20463;-70
2022/04/24 03:33:28;;;;;;;9.33;6.10;;;;;;;;;;5079411;28;20441;-70
2022/04/24 03:35:55;;;;;;;8.10;5.67;;;;;;;;;;5091526;28;20938;-70
2022/04/24 03:38:24;;;;;;;6.70;4.83;;;;;;;;;;5084711;28;20511;-71
2022/04/24 03:40:51;;;;;;;8.37;5.07;;;;;;;;;;5075692;28;20499;-69
2022/04/24 03:43:18;;;;;;;6.83;5.10;;;;;;;;;;5085318;28;20790;-71
2022/04/24 03:45:45;;;;;;;7.90;4.97;;;;;;;;;;5087589;28;20500;-70
2022/04/24 03:48:13;;;;;;;8.70;5.73;;;;;;;;;;5090475;28;20527;-70
2022/04/24 03:50:40;;;;;;;6.73;4.73;;;;;;;;;;5091682;28;20473;-71
2022/04/24 03:53:07;;;;;;;8.43;5.73;;;;;;;;;;5085002;28;20699;-70
2022/04/24 03:55:36;;;;;;;7.83;4.90;;;;;;;;;;5091814;28;20523;-71
2022/04/24 03:58:03;;;;;;;8.07;6.87;;;;;;;;;;5078117;28;20474;-71
2022/04/24 04:00:30;;;;;;;7.40;5.57;;;;;;;;;;5087360;28;20526;-71
2022/04/24 04:02:57;;;;;;;9.53;4.30;;;;;;;;;;5091461;28;20441;-71
2022/04/24 04:05:25;;;;;;;10.10;6.23;;;;;;;;;;5092196;28;20443;-71
2022/04/24 04:07:52;;;;;;;7.77;5.37;;;;;;;;;;5090978;28;20527;-70
2022/04/24 04:10:19;;;;;;;8.40;5.17;;;;;;;;;;5078642;28;20445;-71
2022/04/24 04:12:48;;;;;;;7.70;5.77;;;;;;;;;;5080716;28;20450;-72
2022/04/24 04:15:15;;;;;;;7.77;5.17;;;;;;;;;;5091687;28;20479;-72
2022/04/24 04:17:42;;;;;;;8.10;5.40;;;;;;;;;;5090906;28;21003;-72
2022/04/24 04:20:11;;;;;;;7.20;4.00;;;;;;;;;;5076534;28;20494;-71
2022/04/24 04:22:51;;;;;;;10.63;5.90;;;;;;;;;;5090995;28;21079;-71
2022/04/24 04:25:18;;;;;;;6.67;5.13;;;;;;;;;;5091272;28;20447;-72
2022/04/24 04:27:45;;;;;;;9.77;6.80;;;;;;;;;;5090180;28;20543;-71
2022/04/24 04:30:14;;;;;;;8.70;5.53;;;;;;;;;;5076934;28;20940;-71
2022/04/24 04:32:41;;;;;;;10.13;5.30;;;;;;;;;;5091073;28;20442;-71
2022/04/24 04:35:10;;;;;;;9.03;4.93;;;;;;;;;;5076171;28;20471;-71
2022/04/24 04:37:37;;;;;;;13.23;5.80;;;;;;;;;;5075660;28;20517;-71
2022/04/24 04:40:05;;;;;;;7.27;5.97;;;;;;;;;;5084310;28;20444;-72
2022/04/24 04:42:32;;;;;;;9.20;4.80;;;;;;;;;;5090741;28;20486;-72
2022/04/24 04:45:00;;;;;;;3.30;3.00;;;;;;;;;;5090774;28;20445;-71
2022/04/24 04:47:29;;;;;;;3.57;2.13;;;;;;;;;;5089997;28;20444;-71
2022/04/24 04:49:56;;;;;;;1.60;1.50;;;;;;;;;;5090767;28;20438;-71
2022/04/24 04:52:23;;;;;;;3.00;1.47;;;;;;;;;;5090093;28;20544;-71
2022/04/24 04:54:50;;;;;;;4.00;1.60;;;;;;;;;;5083741;28;20455;-70
2022/04/24 04:57:18;;;;;;;1.00;0.90;;;;;;;;;;5089681;28;20460;-71
2022/04/24 04:59:45;;;;;;;1.00;0.53;;;;;;;;;;5084950;28;20467;-71
2022/04/24 05:02:12;;;;;;;1.00;0.90;;;;;;;;;;5086855;28;20479;-73
2022/04/24 05:04:43;;;;;;;0.70;0.60;;;;;;;;;;5080983;28;20536;-71
2022/04/24 05:07:10;;;;;;;0.90;0.67;;;;;;;;;;5085950;28;20453;-74
2022/04/24 05:09:37;;;;;;;0.60;0.40;;;;;;;;;;5090684;28;20539;-72
2022/04/24 05:12:05;;;;;;;0.60;0.40;;;;;;;;;;5084170;28;20809;-74
2022/04/24 05:14:32;;;;;;;0.80;0.53;;;;;;;;;;5082554;28;20441;-77
2022/04/24 05:16:59;;;;;;;3.70;0.80;;;;;;;;;;5079034;28;20471;-72
2022/04/24 05:19:26;;;;;;;1.00;0.60;;;;;;;;;;5090645;28;20450;-72
2022/04/24 05:21:55;;;;;;;0.80;0.50;;;;;;;;;;5090041;28;20559;-73
2022/04/24 05:24:22;;;;;;;0.60;0.40;;;;;;;;;;5091075;28;20503;-72
2022/04/24 05:26:49;;;;;;;0.70;0.50;;;;;;;;;;5090009;28;20470;-72
2022/04/24 05:29:17;;;;;;;1.93;0.70;;;;;;;;;;5081418;28;20443;-72
2022/04/24 05:31:44;;;;;;;0.77;0.50;;;;;;;;;;5081990;28;20440;-71
2022/04/24 05:34:11;;;;;;;0.60;0.40;;;;;;;;;;5082296;28;20545;-72
2022/04/24 05:36:38;;;;;;;0.80;0.50;;;;;;;;;;5090679;28;20861;-72
2022/04/24 05:39:07;;;;;;;0.70;0.50;;;;;;;;;;5089317;28;20433;-72
2022/04/24 05:41:34;;;;;;;0.60;0.40;;;;;;;;;;5090589;28;20478;-72
2022/04/24 05:44:01;;;;;;;0.70;0.50;;;;;;;;;;5089645;28;20263;-71
2022/04/24 05:46:30;;;;;;;0.70;0.50;;;;;;;;;;5083883;28;20434;-71
2022/04/24 05:49:00;;;;;;;0.80;0.50;;;;;;;;;;5069815;28;20449;-71
2022/04/24 05:51:27;;;;;;;0.60;0.40;;;;;;;;;;5089588;28;20446;-72
2022/04/24 05:53:55;;;;;;;0.60;0.40;;;;;;;;;;5089486;28;20853;-72
2022/04/24 05:56:23;;;;;;;0.70;0.40;;;;;;;;;;5090298;28;20887;-72
2022/04/24 05:58:51;;;;;;;0.60;0.40;;;;;;;;;;5089547;28;20522;-71
2022/04/24 06:01:18;;;;;;;0.70;0.40;;;;;;;;;;5089828;28;20503;-74
2022/04/24 06:03:45;;;;;;;3.00;0.53;;;;;;;;;;5088508;28;20449;-72
2022/04/24 06:06:12;;;;;;;0.67;0.40;;;;;;;;;;5069642;28;20642;-72
2022/04/24 06:08:39;;;;;;;0.70;0.40;;;;;;;;;;5084095;28;20452;-73
2022/04/24 06:11:07;;;;;;;0.70;0.40;;;;;;;;;;5081453;28;20446;-73
2022/04/24 06:13:35;;;;;;;0.80;0.50;;;;;;;;;;5079360;28;20469;-73
2022/04/24 06:16:02;;;;;;;1.33;0.50;;;;;;;;;;5079147;28;20499;-72
2022/04/24 06:18:29;;;;;;;0.97;0.63;;;;;;;;;;5092967;28;20457;-72
2022/04/24 06:20:57;;;;;;;0.80;0.50;;;;;;;;;;5090169;28;20441;-74
2022/04/24 06:23:27;;;;;;;0.70;0.40;;;;;;;;;;5079049;28;20556;-77
2022/04/24 06:25:55;;;;;;;0.70;0.50;;;;;;;;;;5075855;28;20835;-72
2022/04/24 06:28:22;;;;;;;0.80;0.50;;;;;;;;;;5087762;28;20927;-71
2022/04/24 06:30:50;;;;;;;0.90;0.60;;;;;;;;;;5093889;28;20437;-73
2022/04/24 06:33:18;;;;;;;0.70;0.40;;;;;;;;;;5092488;28;20464;-72
2022/04/24 06:35:45;;;;;;;0.60;0.40;;;;;;;;;;5085416;28;20469;-72
2022/04/24 06:38:13;;;;;;;0.70;0.40;;;;;;;;;;5078733;28;20948;-72
2022/04/24 06:40:40;;;;;;;0.80;0.47;;;;;;;;;;5093842;28;20529;-72
2022/04/24 06:43:07;;;;;;;0.67;0.47;;;;;;;;;;5092319;28;20509;-72
2022/04/24 06:45:35;;;;;;;0.70;0.50;;;;;;;;;;5091951;28;20537;-72
2022/04/24 06:48:06;;;;;;;1.10;0.50;;;;;;;;;;5077933;28;20434;-72
2022/04/24 06:50:33;;;;;;;3.77;2.37;;;;;;;;;;5092830;28;20791;-72
2022/04/24 06:53:01;;;;;;;0.60;0.40;;;;;;;;;;5091588;28;20486;-74
2022/04/24 06:55:29;;;;;;;0.70;0.40;;;;;;;;;;5091822;28;20449;-76
2022/04/24 06:57:56;;;;;;;0.70;0.47;;;;;;;;;;5076819;28;20443;-76
2022/04/24 07:00:24;;;;;;;0.70;0.43;;;;;;;;;;5085483;28;20488;-76
2022/04/24 07:02:51;;;;;;;0.77;0.60;;;;;;;;;;5078861;28;20493;-72
2022/04/24 07:05:21;;;;;;;0.70;0.50;;;;;;;;;;5091701;28;20859;-72
2022/04/24 07:07:49;;;;;;;0.60;0.40;;;;;;;;;;5087788;28;20442;-75
2022/04/24 07:10:16;;;;;;;0.70;0.47;;;;;;;;;;5092047;28;20443;-76
2022/04/24 07:12:47;;;;;;;0.83;0.60;;;;;;;;;;5092266;28;20521;-75
2022/04/24 07:15:14;;;;;;;0.70;0.50;;;;;;;;;;5091842;28;20538;-75
2022/04/24 07:17:41;;;;;;;0.60;0.40;;;;;;;;;;5091032;28;20450;-73
2022/04/24 07:20:09;;;;;;;0.60;0.40;;;;;;;;;;5089259;28;20466;-73
2022/04/24 07:22:48;;;;;;;0.60;0.40;;;;;;;;;;5089182;28;20470;-75
2022/04/24 07:25:15;;;;;;;0.60;0.40;;;;;;;;;;5084678;28;20999;-73
2022/04/24 07:27:43;;;;;;;1.07;0.50;;;;;;;;;;5091207;28;20459;-72
2022/04/24 07:30:13;;;;;;;0.60;0.40;;;;;;;;;;5083518;28;20452;-72
2022/04/24 07:32:45;;;;;;;2.10;0.63;;;;;;;;;;5090377;28;20454;-72
2022/04/24 07:35:12;;;;;;;0.70;0.50;;;;;;;;;;5085648;28;21037;-72
2022/04/24 07:37:40;;;;;;;0.60;0.40;;;;;;;;;;5078186;28;21009;-72
2022/04/24 07:40:09;;;;;;;0.60;0.40;;;;;;;;;;5084161;28;20458;-73
2022/04/24 07:42:46;;;;;;;0.70;0.50;;;;;;;;;;5084931;28;20554;-76
2022/04/24 07:45:18;;;;;;;2.40;1.93;;;;;;;;;;5091356;28;20438;-72
2022/04/24 07:47:46;;;;;;;0.60;0.40;;;;;;;;;;5081614;28;20451;-73
2022/04/24 07:50:13;;;;;;;0.70;0.47;;;;;;;;;;5080456;28;20435;-73
2022/04/24 07:52:40;;;;;;;0.60;0.40;;;;;;;;;;5086136;28;20511;-74
2022/04/24 07:55:10;;;;;;;0.60;0.40;;;;;;;;;;5089326;28;20447;-73
2022/04/24 07:57:37;;;;;;;0.70;0.50;;;;;;;;;;5086582;28;20547;-72
2022/04/24 08:00:04;;;;;;;0.70;0.43;;;;;;;;;;5088280;28;20478;-72
2022/04/24 08:02:32;;;;;;;0.80;0.60;;;;;;;;;;5077956;28;20480;-72
2022/04/24 08:04:59;;;;;;;0.70;0.50;;;;;;;;;;5079734;28;20956;-71
2022/04/24 08:07:26;;;;;;;0.60;0.40;;;;;;;;;;5089458;28;20523;-71
2022/04/24 08:09:53;;;;;;;0.60;0.40;;;;;;;;;;5085947;28;20450;-69
2022/04/24 08:12:22;;;;;;;0.90;0.47;;;;;;;;;;5086319;28;20453;-73
2022/04/24 08:14:49;;;;;;;0.70;0.40;;;;;;;;;;5090138;28;20521;-75
2022/04/24 08:17:16;;;;;;;0.70;0.60;;;;;;;;;;5084347;28;20506;-74
2022/04/24 08:19:45;;;;;;;0.60;0.40;;;;;;;;;;5086334;28;20622;-72
2022/04/24 08:22:12;;;;;;;1.13;0.50;;;;;;;;;;5091044;28;20482;-77
2022/04/24 08:24:39;;;;;;;2.10;0.80;;;;;;;;;;5091596;28;20443;-72
2022/04/24 08:27:06;;;;;;;0.70;0.50;;;;;;;;;;5089660;28;20733;-72
2022/04/24 08:29:35;;;;;;;0.83;0.53;;;;;;;;;;5087451;28;20812;-72
2022/04/24 08:32:02;;;;;;;1.63;0.57;;;;;;;;;;5084298;28;20528;-72
2022/04/24 08:34:29;;;;;;;0.70;0.43;;;;;;;;;;5082398;28;20452;-71
2022/04/24 08:36:56;;;;;;;0.60;0.43;;;;;;;;;;5079009;28;20461;-72
2022/04/24 08:39:23;;;;;;;1.87;0.60;;;;;;;;;;5089538;28;20444;-72
2022/04/24 08:41:51;;;;;;;0.80;0.40;;;;;;;;;;5088881;28;20539;-72
2022/04/24 08:44:20;;;;;;;0.73;0.53;;;;;;;;;;5088783;28;20477;-72
2022/04/24 08:46:49;;;;;;;0.67;0.47;;;;;;;;;;5087323;28;20490;-73
2022/04/24 08:49:16;;;;;;;1.63;1.10;;;;;;;;;;5076624;28;20941;-72
2022/04/24 08:51:44;;;;;;;0.60;0.40;;;;;;;;;;5078822;28;20786;-72
2022/04/24 08:54:12;;;;;;;0.63;0.47;;;;;;;;;;5079472;28;20434;-72
2022/04/24 08:56:39;;;;;;;0.80;0.60;;;12.60;99.90;;;;;;5088609;28;21278;-72
2022/04/24 08:59:06;;;;;;;0.60;0.40;;;9.70;99.90;;;;;;5074727;28;20952;-72
2022/04/24 09:01:33;;;;;;;0.80;0.63;;;9.70;99.90;;;;;;5088432;28;20436;-72
2022/04/24 09:04:01;;;;;;;0.80;0.60;;;9.70;99.90;;;;;;5074989;28;20484;-72
2022/04/24 09:06:28;;;;;;;0.90;0.60;;;9.70;99.90;;;;;;5076621;28;20530;-71
2022/04/24 09:09:05;;;;;;;0.60;0.40;;;9.80;99.90;;;;;;5080850;28;20449;-72
2022/04/24 09:11:34;;;;;;;0.80;0.47;;;9.60;99.90;;;;;;5073063;28;20450;-72
2022/04/24 09:14:19;;;;;;;0.77;0.57;;;9.70;99.90;;;;;;5084079;28;20472;-72
2022/04/24 09:16:50;;;;;;;0.70;0.50;;;9.80;99.90;;;;;;5085031;28;20441;-71
2022/04/24 09:19:20;;;;;;;0.80;0.60;;;9.80;99.90;;;;;;5087238;28;20972;-71
2022/04/24 09:21:47;;;;;;;1.03;0.67;;;9.90;99.90;;;;;;5088386;28;20730;-72
2022/04/24 09:24:14;;;;;;;0.70;0.40;;;10.00;99.90;;;;;;5087546;28;21330;-72
2022/04/24 09:26:51;;;;;;;0.70;0.50;;;9.90;99.90;;;;;;5079827;28;20528;-70
2022/04/24 09:29:17;;;;;;;1.13;0.60;;;10.10;99.90;;;;;;5077475;28;20940;-73
2022/04/24 09:31:46;;;;;;;0.80;0.60;;;10.10;99.90;;;;;;5079306;28;20940;-71
2022/04/24 09:34:14;;;;;;;0.70;0.50;;;9.90;99.90;;;;;;5075312;28;20459;-72
2022/04/24 09:36:42;;;;;;;0.70;0.50;;;9.90;99.90;;;;;;5083169;28;20446;-71
2022/04/24 09:39:09;;;;;;;0.90;0.60;;;9.90;99.90;;;;;;5087150;28;20442;-72
2022/04/24 09:41:38;;;;;;;0.70;0.50;;;9.90;99.90;;;;;;5073329;28;20988;-72
2022/04/24 09:44:13;;;;;;;0.70;0.50;;;9.90;99.90;;;;;;5089768;28;20979;-71
2022/04/24 09:46:40;;;;;;;0.80;0.70;;;9.90;99.90;;;;;;5077103;28;20449;-72
2022/04/24 09:49:09;;;;;;;0.70;0.53;;;9.90;99.90;;;;;;5087523;28;20450;-72
2022/04/24 09:51:42;;;;;;;0.80;0.60;;;9.90;99.90;;;;;;5081324;28;20439;-71
2022/04/24 09:54:11;;;;;;;0.70;0.50;;;9.90;99.90;;;;;;5091369;28;20458;-72
2022/04/24 09:56:38;;;;;;;1.00;0.70;;;9.80;99.90;;;;;;5091230;28;20501;-73
2022/04/24 09:59:06;;;;;;;1.50;1.40;;;9.90;99.90;;;;;;5079933;28;20464;-74
2022/04/24 10:01:35;;;;;;;0.60;0.40;;;10.10;99.90;;;;;;5082940;28;20455;-74
2022/04/24 10:04:02;;;;;;;1.00;0.70;;;10.20;99.90;;;;;;5084798;28;20503;-72
2022/04/24 10:06:31;;;;;;;1.50;1.03;;;10.10;99.90;;;;;;5083148;28;20443;-74
2022/04/24 10:09:01;;;;;;;0.80;0.60;;;10.10;99.90;;;;;;5077243;28;20451;-73
2022/04/24 10:11:30;;;;;;;1.33;1.23;;;10.00;99.90;;;;;;5083851;28;20431;-74
2022/04/24 10:14:02;;;;;;;1.17;0.90;;;10.00;99.90;;;;;;5077638;28;20540;-72
2022/04/24 10:17:02;;;;;;;1.00;0.87;;;10.10;99.90;;;;;;5091574;28;20481;-73
2022/04/24 10:19:40;;;;;;;0.77;0.67;;;10.20;99.90;;;;;;5074523;28;20529;-74
2022/04/24 10:22:12;;;;;;;1.50;0.77;;;10.10;99.90;;;;;;5083961;28;20455;-74
2022/04/24 10:24:41;;;;;;;0.90;0.60;;;10.20;99.90;;;;;;5085812;28;20471;-73
2022/04/24 10:27:11;;;;;;;0.70;0.50;;;;;;;;;;5090627;28;20473;-74
2022/04/24 10:29:49;;;;;;;0.70;0.60;;;;;;;;;;5076003;28;20458;-73
2022/04/24 10:32:25;;;;;;;0.90;0.60;;;;;;;;;;5081240;28;21041;-74
2022/04/24 10:34:52;;;;;;;0.70;0.50;;;;;;;;;;5085843;28;20815;-74
2022/04/24 10:37:26;;;;;;;1.03;0.60;;;;;;;;;;5082036;28;20529;-76
2022/04/24 10:39:56;;;;;;;0.90;0.60;;;;;;;;;;5091816;28;20449;-74
2022/04/24 10:42:31;;;;;;;0.70;0.50;;;;;;;;;;5091342;28;20982;-74
2022/04/24 10:45:05;;;;;;;0.80;0.60;;;;;;;;;;5071571;28;20975;-72
2022/04/24 10:47:41;;;;;;;1.03;0.87;;;;;;;;;;5088941;28;20455;-73
2022/04/24 10:50:09;;;;;;;0.90;0.70;;;;;;;;;;5090942;28;20761;-73
2022/04/24 10:52:39;;;;;;;1.23;0.93;;;;;;;;;;5090999;28;20521;-74
2022/04/24 10:55:10;;;;;;;0.80;0.70;;;;;;;;;;5085967;28;20529;-74
2022/04/24 10:57:43;;;;;;;1.37;1.00;;;;;;;;;;5082905;28;20462;-74
2022/04/24 11:00:19;;;;;;;0.70;0.50;;;;;;;;;;5076835;28;20445;-74
2022/04/24 11:02:47;;;;;;;1.00;0.60;;;;;;;;;;5073599;28;20439;-73
2022/04/24 11:05:14;;;;;;;0.93;0.70;;;;;;;;;;5083308;28;20439;-73
2022/04/24 11:07:42;;;;;;;0.93;0.80;;;;;;;;;;5089926;28;20526;-72
2022/04/24 11:10:11;;;;;;;0.70;0.50;;;;;;;;;;5089176;28;20552;-75
2022/04/24 11:12:38;;;;;;;1.70;0.80;;;;;;;;;;5090120;28;20450;-73
2022/04/24 11:15:08;;;;;;;0.83;0.70;;;;;;;;;;5088452;28;20453;-73
2022/04/24 11:17:35;;;;;;;0.70;0.60;;;;;;;;;;5080042;28;20496;-72
2022/04/24 11:20:04;;;;;;;0.80;0.60;;;;;;;;;;5069074;28;20961;-72
2022/04/24 11:22:32;;;;;;;0.70;0.50;;;;;;;;;;5080095;28;20530;-73
2022/04/24 11:25:01;;;;;;;2.10;0.60;;;;;;;;;;5075972;28;20566;-70
2022/04/24 11:27:28;;;;;;;0.90;0.70;;;;;;;;;;5088875;28;20453;-73
2022/04/24 11:29:55;;;;;;;0.70;0.50;;;;;;;;;;5081292;28;20812;-72
2022/04/24 11:32:25;;;;;;;1.27;1.10;;;;;;;;;;5088430;28;20508;-70
2022/04/24 11:34:52;;;;;;;1.23;0.70;;;;;;;;;;5083809;28;20442;-74
2022/04/24 11:37:24;;;;;;;1.47;0.50;;;;;;;;;;5087848;28;20560;-73
2022/04/24 11:40:00;;;;;;;0.80;0.60;;;;;;;;;;5074759;28;20657;-73
2022/04/24 11:42:28;;;;;;;0.60;0.50;;;;;;;;;;5084459;28;20501;-72
2022/04/24 11:50:26;;;;;;;3.80;0.83;;;;;;;;;;5086350;28;20783;-72
2022/04/24 11:52:53;;;;;;;1.07;0.80;;;;;;;;;;5091212;28;20995;-74
2022/04/24 11:55:22;;;;;;;1.10;0.77;;;;;;;;;;5090427;28;20447;-72
2022/04/24 11:57:57;;;;;;;1.00;0.80;;;;;;;;;;5082723;28;20448;-72
2022/04/24 12:00:33;;;;;;;1.00;0.80;;;;;;;;;;5084600;28;20507;-72
2022/04/24 12:03:02;;;;;;;0.90;0.77;;;;;;;;;;5070168;28;20926;-72
2022/04/24 12:05:30;;;;;;;1.00;0.80;;;;;;;;;;5079121;28;20775;-73
2022/04/24 12:07:57;;;;;;;1.23;0.80;;;;;;;;;;5078662;28;20452;-70
2022/04/24 12:10:26;;;;;;;1.00;0.60;;;;;;;;;;5082258;28;20541;-71
2022/04/24 12:12:53;;;;;;;1.23;0.77;;;;;;;;;;5089388;28;20517;-72
2022/04/24 12:15:21;;;;;;;0.80;0.60;;;;;;;;;;5084596;28;20949;-71
2022/04/24 12:17:49;;;;;;;0.90;0.70;;;;;;;;;;5068934;28;20531;-71
2022/04/24 12:20:18;;;;;;;1.37;1.00;;;;;;;;;;5086843;28;20954;-72
2022/04/24 12:22:45;;;;;;;0.60;0.40;;;;;;;;;;5089581;28;20450;-72
2022/04/24 12:25:15;;;;;;;0.70;0.50;;;;;;;;;;5084403;28;20926;-73
2022/04/24 12:27:52;;;;;;;0.97;0.70;;;;;;;;;;5083350;28;20460;-73
2022/04/24 12:30:19;;;;;;;0.70;0.63;;;;;;;;;;5088282;28;20456;-73
2022/04/24 12:32:46;;;;;;;1.10;0.60;;;;;;;;;;5089895;28;20444;-73
2022/04/24 12:35:27;;;;;;;1.10;0.70;;;;;;;;;;5088201;28;20449;-73
2022/04/24 12:37:55;;;;;;;0.80;0.60;;;;;;;;;;5089143;28;20478;-72
2022/04/24 12:40:22;;;;;;;0.80;0.57;;;;;;;;;;5077324;28;21270;-73
2022/04/24 12:42:53;;;;;;;0.80;0.53;;;;;;;;;;5086200;28;20449;-73
2022/04/24 12:45:21;;;;;;;1.00;0.73;;;;;;;;;;5087738;28;20598;-73
2022/04/24 12:47:48;;;;;;;0.70;0.60;;;;;;;;;;5072895;28;20453;-72
2022/04/24 12:50:16;;;;;;;0.90;0.70;;;;;;;;;;5088765;28;20531;-73
2022/04/24 12:52:45;;;;;;;0.80;0.70;;;;;;;;;;5088192;28;20447;-73
2022/04/24 12:55:12;;;;;;;0.60;0.40;;;;;;;;;;5087910;28;20551;-73
2022/04/24 12:57:40;;;;;;;1.13;0.57;;;;;;;;;;5088957;28;20547;-72
2022/04/24 13:00:08;;;;;;;0.60;0.40;;;;;;;;;;5076222;28;20937;-72
2022/04/24 13:02:36;;;;;;;0.70;0.60;;;;;;;;;;5087357;28;20451;-72
2022/04/24 13:05:03;;;;;;;1.10;0.70;;;;;;;;;;5086150;28;20479;-72
2022/04/24 13:07:30;;;;;;;0.60;0.40;;;;;;;;;;5075330;28;20805;-74
2022/04/24 13:09:59;;;;;;;1.00;0.90;;;;;;;;;;5075224;28;21026;-71
2022/04/24 13:12:26;;;;;;;0.60;0.50;;;;;;;;;;5085944;28;20523;-71
2022/04/24 13:14:54;;;;;;;0.80;0.50;;;;;;;;;;5088363;28;21313;-74
2022/04/24 13:20:06;;;;;;;1.27;0.80;;;;;;;;;;5079988;28;20428;-72
2022/04/24 13:22:33;;;;;;;0.60;0.50;;;;;;;;;;5083391;28;20442;-72
2022/04/24 13:25:02;;;;;;;0.70;0.50;;;;;;;;;;5087891;28;20468;-71
2022/04/24 13:27:29;;;;;;;0.90;0.73;;;;;;;;;;5088393;28;20445;-72
2022/04/24 13:29:56;;;;;;;0.80;0.60;;;;;;;;;;5076288;28;20440;-72
2022/04/24 13:32:25;;;;;;;0.70;0.50;;;;;;;;;;5077712;28;20473;-72
2022/04/24 13:34:52;;;;;;;1.43;1.33;;;;;;;;;;5087787;28;20444;-72
2022/04/24 13:40:06;;;;;;;1.77;0.63;;;;;;;;;;5074230;28;20417;-72
2022/04/24 13:42:33;;;;;;;0.70;0.47;;;;;;;;;;5087837;28;20532;-71
2022/04/24 13:45:00;;;;;;;1.27;0.80;;;;;;;;;;5087847;28;20591;-71
2022/04/24 13:47:28;;;;;;;0.70;0.50;;;;;;;;;;5086346;28;20447;-72
2022/04/24 13:49:55;;;;;;;0.70;0.50;;;;;;;;;;5078534;28;20472;-72
2022/04/24 13:52:22;;;;;;;0.70;0.50;;;;;;;;;;5082407;28;20470;-72
2022/04/24 13:54:50;;;;;;;0.83;0.63;;;;;;;;;;5080335;28;20563;-72
2022/04/24 13:57:19;;;;;;;2.27;1.63;;;;;;;;;;5085203;28;20514;-72
2022/04/24 13:59:46;;;;;;;1.13;0.80;;;;;;;;;;5086006;28;20940;-72
2022/04/24 14:02:14;;;;;;;0.73;0.43;;;;;;;;;;5083666;28;20456;-73
2022/04/24 14:04:41;;;;;;;0.73;0.60;;;;;;;;;;5065859;28;21296;-72
2022/04/24 14:07:08;;;;;;;0.70;0.50;;;;;;;;;;5071532;28;20560;-72
2022/04/24 14:09:35;;;;;;;0.80;0.47;;;;;;;;;;5075097;28;20512;-72
2022/04/24 14:12:03;;;;;;;2.90;1.70;;;;;;;;;;5070795;28;21171;-71
2022/04/24 14:14:31;;;;;;;3.13;1.70;;;;;;;;;;5074458;28;21402;-72
2022/04/24 14:16:59;;;;;;;0.90;0.70;;;;;;;;;;5071851;28;20480;-72
2022/04/24 14:19:26;;;;;;;1.90;0.70;;;;;;;;;;5069996;28;20448;-74
2022/04/24 14:21:55;;;;;;;0.70;0.50;;;;;;;;;;5071271;28;20444;-72
2022/04/24 14:24:22;;;;;;;0.67;0.50;;;;;;;;;;5068515;28;20517;-71
2022/04/24 14:26:51;;;;;;;3.53;0.83;;;;;;;;;;5076584;28;20499;-72
2022/04/24 14:29:19;;;;;;;1.47;0.70;;;;;;;;;;5077506;28;20975;-72
2022/04/24 14:31:48;;;;;;;0.70;0.50;;;;;;;;;;5083416;28;20459;-72
2022/04/24 14:34:15;;;;;;;1.40;1.17;;;;;;;;;;5087602;28;20475;-72
2022/04/24 14:36:43;;;;;;;1.00;0.80;;;;;;;;;;5082922;28;20469;-71
2022/04/24 14:39:10;;;;;;;0.80;0.60;;;;;;;;;;5083055;28;20528;-72
2022/04/24 14:41:38;;;;;;;0.80;0.60;;;;;;;;;;5084853;28;20842;-72
2022/04/24 14:44:05;;;;;;;0.70;0.60;;;;;;;;;;5070838;28;20560;-72
2022/04/24 14:57:33;;;;;;;0.70;0.50;;;;;;;;;;5086240;28;20497;-72
2022/04/24 15:00:01;;;;;;;1.77;0.67;;;;;;;;;;5083888;28;20481;-71